createdAt,value
2019-04-14T00:00:46.845Z,4.30
2019-04-14T00:03:23.870Z,4.30
2019-04-14T00:05:58.314Z,4.30
2019-04-14T00:08:28.427Z,4.60
2019-04-14T00:10:59.321Z,4.50
2019-04-14T00:13:29.171Z,4.40
2019-04-14T00:15:58.937Z,4.40
2019-04-14T00:18:29.408Z,4.40
2019-04-14T00:20:59.879Z,4.30
2019-04-14T00:23:30.417Z,4.20
2019-04-14T00:26:29.457Z,4.30
2019-04-14T00:29:00.048Z,4.20
2019-04-14T00:31:30.732Z,4.30
2019-04-14T00:34:02.885Z,4.50
2019-04-14T00:36:37.266Z,4.50
2019-04-14T00:39:21.003Z,4.50
2019-04-14T00:42:03.334Z,4.50
2019-04-14T00:44:41.013Z,4.40
2019-04-14T00:47:22.194Z,4.50
2019-04-14T00:49:53.036Z,4.40
2019-04-14T00:52:23.371Z,4.40
2019-04-14T00:54:54.249Z,4.20
2019-04-14T00:57:24.752Z,4.10
2019-04-14T00:59:55.231Z,4.20
2019-04-14T01:02:25.343Z,4.20
2019-04-14T01:04:55.523Z,4.40
2019-04-14T01:07:26.189Z,4.40
2019-04-14T01:09:55.797Z,4.40
2019-04-14T01:12:25.750Z,4.20
2019-04-14T01:14:56.000Z,4.00
2019-04-14T01:17:26.589Z,3.90
2019-04-14T01:19:57.042Z,3.90
2019-04-14T01:22:27.066Z,4.00
2019-04-14T01:24:57.559Z,3.80
2019-04-14T01:27:27.772Z,3.90
2019-04-14T01:29:58.160Z,4.00
2019-04-14T01:32:28.309Z,4.10
2019-04-14T01:34:58.928Z,4.00
2019-04-14T01:37:29.085Z,3.80
2019-04-14T01:39:58.978Z,3.80
2019-04-14T01:42:28.955Z,3.90
2019-04-14T01:44:59.273Z,4.00
2019-04-14T01:47:29.209Z,4.10
2019-04-14T01:49:59.505Z,3.90
2019-04-14T01:52:34.141Z,3.90
2019-04-14T01:55:13.383Z,4.10
2019-04-14T01:57:44.620Z,4.10
2019-04-14T02:00:33.667Z,3.80
2019-04-14T02:03:04.515Z,3.80
2019-04-14T02:05:34.372Z,3.80
2019-04-14T02:08:04.507Z,4.00
2019-04-14T02:10:34.735Z,3.90
2019-04-14T02:13:04.974Z,3.70
2019-04-14T02:15:35.214Z,3.80
2019-04-14T02:18:05.712Z,3.90
2019-04-14T02:20:36.060Z,4.00
2019-04-14T02:23:06.125Z,3.90
2019-04-14T02:25:36.085Z,3.70
2019-04-14T02:28:06.833Z,3.70
2019-04-14T02:30:46.043Z,3.70
2019-04-14T02:36:14.256Z,3.90
2019-04-14T02:38:41.022Z,3.90
2019-04-14T02:41:10.708Z,3.90
2019-04-14T02:43:57.645Z,3.90
2019-04-14T02:51:13.820Z,3.60
2019-04-14T02:56:22.328Z,3.70
2019-04-14T02:58:58.703Z,3.70
2019-04-14T03:01:14.683Z,3.50
2019-04-14T03:03:49.483Z,3.50
2019-04-14T03:06:17.869Z,3.60
2019-04-14T03:09:07.994Z,3.50
2019-04-14T03:11:24.560Z,3.40
2019-04-14T03:13:51.494Z,3.30
2019-04-14T03:16:33.018Z,3.40
2019-04-14T03:19:06.760Z,3.30
2019-04-14T03:24:28.545Z,3.50
2019-04-14T03:27:06.316Z,3.40
2019-04-14T03:32:32.330Z,3.10
2019-04-14T03:34:50.128Z,3.10
2019-04-14T03:39:46.585Z,3.20
2019-04-14T03:42:19.886Z,3.30
2019-04-14T03:44:49.473Z,3.20
2019-04-14T03:47:19.752Z,3.30
2019-04-14T03:49:52.446Z,3.30
2019-04-14T03:52:23.975Z,3.30
2019-04-14T03:54:47.130Z,3.40
2019-04-14T03:56:59.866Z,3.20
2019-04-14T03:59:30.303Z,3.10
2019-04-14T04:02:01.007Z,3.20
2019-04-14T04:04:31.537Z,3.20
2019-04-14T04:07:01.845Z,3.40
2019-04-14T04:09:34.272Z,3.40
2019-04-14T04:12:05.187Z,3.30
2019-04-14T04:14:35.693Z,3.20
2019-04-14T04:17:07.968Z,3.20
2019-04-14T04:19:49.178Z,3.30
2019-04-14T04:22:39.025Z,3.40
2019-04-14T04:25:11.492Z,3.60
2019-04-14T04:27:59.092Z,3.70
2019-04-14T04:30:36.273Z,3.60
2019-04-14T04:33:11.000Z,3.40
2019-04-14T04:35:42.175Z,3.20
2019-04-14T04:38:29.883Z,3.40
2019-04-14T04:40:59.513Z,3.30
2019-04-14T04:43:29.743Z,3.40
2019-04-14T04:46:00.662Z,3.30
2019-04-14T04:48:30.828Z,3.20
2019-04-14T04:51:00.669Z,3.20
2019-04-14T04:53:30.952Z,3.10
2019-04-14T04:56:01.488Z,3.10
2019-04-14T04:58:32.659Z,3.10
2019-04-14T05:01:03.516Z,3.10
2019-04-14T05:03:33.990Z,3.30
2019-04-14T05:06:41.711Z,3.50
2019-04-14T05:09:14.412Z,3.30
2019-04-14T05:11:46.868Z,3.20
2019-04-14T05:14:28.351Z,3.00
2019-04-14T05:16:57.996Z,3.10
2019-04-14T05:19:31.845Z,3.20
2019-04-14T05:21:58.786Z,3.10
2019-04-14T05:24:29.060Z,3.20
2019-04-14T05:26:59.274Z,3.50
2019-04-14T05:29:29.754Z,3.40
2019-04-14T05:32:00.115Z,3.40
2019-04-14T05:34:30.461Z,3.30
2019-04-14T05:37:00.690Z,3.40
2019-04-14T05:39:30.824Z,3.40
2019-04-14T05:42:10.730Z,3.50
2019-04-14T05:44:31.938Z,3.50
2019-04-14T05:47:02.189Z,3.60
2019-04-14T05:49:39.150Z,3.80
2019-04-14T05:52:03.420Z,4.10
2019-04-14T05:54:33.986Z,4.10
2019-04-14T05:57:04.402Z,4.10
2019-04-14T05:59:35.233Z,4.10
2019-04-14T06:02:05.348Z,4.00
2019-04-14T06:04:35.260Z,3.90
2019-04-14T06:07:05.198Z,3.80
2019-04-14T06:09:34.774Z,3.90
2019-04-14T06:12:04.352Z,3.90
2019-04-14T06:14:33.953Z,3.90
2019-04-14T06:17:03.533Z,3.90
2019-04-14T06:19:37.950Z,3.80
2019-04-14T06:22:05.036Z,3.80
2019-04-14T06:24:34.624Z,4.10
2019-04-14T06:27:04.196Z,4.20
2019-04-14T06:29:33.791Z,4.30
2019-04-14T06:32:14.107Z,4.40
2019-04-14T06:35:01.566Z,4.50
2019-04-14T06:37:32.780Z,4.40
2019-04-14T06:40:03.995Z,4.40
2019-04-14T06:42:33.571Z,4.40
2019-04-14T06:45:03.337Z,4.50
2019-04-14T06:47:32.923Z,4.60
2019-04-14T06:50:02.508Z,4.60
2019-04-14T06:52:32.094Z,4.70
2019-04-14T06:55:01.683Z,4.60
2019-04-14T06:57:31.255Z,4.70
2019-04-14T07:00:00.834Z,4.70
2019-04-14T07:02:30.421Z,4.70
2019-04-14T07:05:00.120Z,4.80
2019-04-14T07:07:29.699Z,4.70
2019-04-14T07:09:59.287Z,4.40
2019-04-14T07:12:28.909Z,4.40
2019-04-14T07:14:58.728Z,4.60
2019-04-14T07:17:29.723Z,4.80
2019-04-14T07:20:02.357Z,4.90
2019-04-14T07:22:30.980Z,4.90
2019-04-14T07:25:00.555Z,4.80
2019-04-14T07:27:30.128Z,4.70
2019-04-14T07:30:01.345Z,4.90
2019-04-14T07:32:35.295Z,5.00
2019-04-14T07:35:16.283Z,5.00
2019-04-14T07:37:47.512Z,5.00
2019-04-14T07:40:30.753Z,5.00
2019-04-14T07:43:04.798Z,4.90
2019-04-14T07:45:53.076Z,5.20
2019-04-14T07:48:24.306Z,5.30
2019-04-14T07:51:11.918Z,5.40
2019-04-14T07:53:46.329Z,5.50
2019-04-14T07:56:20.431Z,5.60
2019-04-14T07:58:57.519Z,5.70
2019-04-14T08:01:40.707Z,5.60
2019-04-14T08:04:14.651Z,5.40
2019-04-14T08:06:45.890Z,5.40
2019-04-14T08:09:15.467Z,5.40
2019-04-14T08:11:45.066Z,5.50
2019-04-14T08:14:14.635Z,5.50
2019-04-14T08:16:48.186Z,5.60
2019-04-14T08:19:18.365Z,5.80
2019-04-14T08:21:47.960Z,5.90
2019-04-14T08:24:17.551Z,6.20
2019-04-14T08:26:47.132Z,6.40
2019-04-14T08:29:16.740Z,6.30
2019-04-14T08:31:46.322Z,6.30
2019-04-14T08:34:15.907Z,6.50
2019-04-14T08:36:45.548Z,6.50
2019-04-14T08:39:15.139Z,6.50
2019-04-14T08:41:52.201Z,6.80
2019-04-14T08:44:32.646Z,6.70
2019-04-14T08:47:03.856Z,6.80
2019-04-14T08:49:37.745Z,7.20
2019-04-14T08:52:17.969Z,7.20
2019-04-14T08:54:49.199Z,7.00
2019-04-14T08:57:20.428Z,6.90
2019-04-14T09:00:03.921Z,6.90
2019-04-14T09:02:34.327Z,7.20
2019-04-14T09:05:06.809Z,7.30
2019-04-14T09:07:38.011Z,7.30
2019-04-14T09:10:15.412Z,7.20
2019-04-14T09:12:52.084Z,7.50
2019-04-14T09:15:21.672Z,7.50
2019-04-14T09:17:51.252Z,7.40
2019-04-14T09:20:20.859Z,7.30
2019-04-14T09:22:50.458Z,7.50
2019-04-14T09:25:20.020Z,7.90
2019-04-14T09:27:49.596Z,8.10
2019-04-14T09:30:19.177Z,8.00
2019-04-14T09:32:48.747Z,7.60
2019-04-14T09:35:18.348Z,7.90
2019-04-14T09:37:47.923Z,7.80
2019-04-14T09:40:17.539Z,7.70
2019-04-14T09:42:47.123Z,7.40
2019-04-14T09:45:16.722Z,7.40
2019-04-14T09:47:46.546Z,7.60
2019-04-14T09:50:16.155Z,7.60
2019-04-14T09:52:45.809Z,7.50
2019-04-14T09:55:15.469Z,7.90
2019-04-14T09:57:45.055Z,7.70
2019-04-14T10:00:15.983Z,7.70
2019-04-14T10:02:45.557Z,7.60
2019-04-14T10:05:15.164Z,7.50
2019-04-14T10:07:44.747Z,7.60
2019-04-14T10:10:14.334Z,7.70
2019-04-14T10:12:43.910Z,7.90
2019-04-14T10:15:13.551Z,8.20
2019-04-14T10:45:22.763Z,6.40
2019-04-14T10:47:52.349Z,6.60
2019-04-14T10:50:30.563Z,6.80
2019-04-14T10:52:54.783Z,7.00
2019-04-14T10:55:24.371Z,7.20
2019-04-14T10:57:53.935Z,7.20
2019-04-14T11:00:23.644Z,7.40
2019-04-14T11:02:53.309Z,7.70
2019-04-14T11:05:23.656Z,7.90
2019-04-14T11:07:53.233Z,8.10
2019-04-14T11:10:22.820Z,8.30
2019-04-14T11:12:52.431Z,8.20
2019-04-14T11:15:22.033Z,8.20
2019-04-14T11:17:51.625Z,8.00
2019-04-14T11:20:21.272Z,8.10
2019-04-14T11:23:02.527Z,8.50
2019-04-14T11:25:22.154Z,9.00
2019-04-14T11:27:51.737Z,9.30
2019-04-14T11:30:22.935Z,9.40
2019-04-14T11:33:03.214Z,9.20
2019-04-14T11:35:40.385Z,9.40
2019-04-14T11:38:11.602Z,9.70
2019-04-14T11:40:45.619Z,10.00
2019-04-14T11:43:15.249Z,10.10
2019-04-14T11:45:44.930Z,10.10
2019-04-14T11:48:14.533Z,9.70
2019-04-14T11:50:44.126Z,9.70
2019-04-14T11:53:13.712Z,9.90
2019-04-14T11:55:43.292Z,10.30
2019-04-14T11:58:12.892Z,10.60
2019-04-14T12:00:50.517Z,10.60
2019-04-14T12:03:39.810Z,10.50
2019-04-14T19:19:04.930Z,9.10
2019-04-14T19:21:34.495Z,9.10
2019-04-14T19:24:04.153Z,9.30
2019-04-14T19:26:33.739Z,9.60
2019-04-14T19:29:03.424Z,9.80
2019-04-14T19:31:33.059Z,10.00
2019-04-14T19:34:02.671Z,10.00
2019-04-14T19:36:32.250Z,10.10
2019-04-14T19:39:02.191Z,10.20
2019-04-14T19:41:31.801Z,10.20
2019-04-14T19:44:01.488Z,10.30
2019-04-14T19:46:32.877Z,10.30
2019-04-14T19:49:02.820Z,10.20
2019-04-14T19:51:32.431Z,10.10
2019-04-14T19:54:02.092Z,10.10
2019-04-14T19:56:31.684Z,10.10
2019-04-14T19:59:01.363Z,10.00
2019-04-14T20:01:31.829Z,9.90
2019-04-14T20:04:01.375Z,10.10
2019-04-14T20:06:31.036Z,10.00
2019-04-14T20:09:00.692Z,10.00
2019-04-14T20:11:30.294Z,10.00
2019-04-14T20:13:59.956Z,10.00
2019-04-14T20:16:33.789Z,9.80
2019-04-14T20:19:14.573Z,9.70
2019-04-14T20:21:51.986Z,9.80
2019-04-14T20:24:29.354Z,9.70
2019-04-14T20:27:00.781Z,9.80
2019-04-14T20:29:32.067Z,9.90
2019-04-14T20:32:06.056Z,9.80
2019-04-14T20:34:36.619Z,9.70
2019-04-14T20:37:06.211Z,9.70
2019-04-14T20:39:36.693Z,9.60
2019-04-14T20:42:07.106Z,9.70
2019-04-14T20:44:37.157Z,9.90
2019-04-14T20:47:08.484Z,9.90
2019-04-14T20:49:38.553Z,9.80
2019-04-14T20:52:08.688Z,9.70
2019-04-14T20:54:38.278Z,9.80
2019-04-14T20:57:08.016Z,9.90
2019-04-14T20:59:37.620Z,9.90
2019-04-14T21:02:24.302Z,9.80
2019-04-14T21:04:55.592Z,9.70
2019-04-14T21:07:26.840Z,9.60
2019-04-14T21:09:58.079Z,9.60
2019-04-14T21:12:44.631Z,9.60
2019-04-14T21:15:15.863Z,9.60
2019-04-14T21:18:03.137Z,9.70
2019-04-14T21:20:34.623Z,9.60
2019-04-14T21:23:17.701Z,9.60
2019-04-14T21:26:00.158Z,9.60
2019-04-14T21:28:33.971Z,9.50
2019-04-14T21:31:05.266Z,9.50
2019-04-14T21:33:54.313Z,9.50
2019-04-14T21:36:25.520Z,9.40
2019-04-14T21:38:56.761Z,9.30
2019-04-14T21:41:27.975Z,9.30
2019-04-14T21:43:57.557Z,9.30
2019-04-14T21:46:27.131Z,9.20
2019-04-14T21:48:56.769Z,9.10
2019-04-14T21:51:27.922Z,9.00
2019-04-14T21:53:57.516Z,9.00
2019-04-14T21:56:28.735Z,9.10
2019-04-14T21:58:59.983Z,9.20
2019-04-14T22:01:52.537Z,9.20
2019-04-14T22:04:36.399Z,9.00
2019-04-14T22:07:16.898Z,9.00
2019-04-14T22:09:46.915Z,9.00
2019-04-14T22:12:16.493Z,9.10
2019-04-14T22:14:46.087Z,9.00
2019-04-14T22:17:16.046Z,9.00
2019-04-14T22:19:45.644Z,8.90
2019-04-14T22:22:15.231Z,8.80
2019-04-14T22:24:44.831Z,8.80
2019-04-14T22:27:14.403Z,8.80
2019-04-14T22:29:43.998Z,8.90
2019-04-14T22:32:14.574Z,8.90
2019-04-14T22:34:44.212Z,8.80
2019-04-14T22:37:13.829Z,8.80
2019-04-14T22:39:43.460Z,8.80
2019-04-14T22:42:13.040Z,8.80
2019-04-14T22:44:42.640Z,8.80
2019-04-14T22:47:12.216Z,8.70
2019-04-14T22:49:41.815Z,8.60
2019-04-14T22:52:11.409Z,8.60
2019-04-14T22:54:41.004Z,8.60
2019-04-14T22:57:10.603Z,8.60
2019-04-14T22:59:40.211Z,8.60
2019-04-14T23:02:17.683Z,8.60
2019-04-14T23:04:54.865Z,8.60
2019-04-14T23:07:28.999Z,8.50
2019-04-14T23:10:09.147Z,8.50
2019-04-14T23:12:40.367Z,8.50
2019-04-14T23:15:11.831Z,8.50
2019-04-14T23:17:43.056Z,8.50
2019-04-14T23:20:23.011Z,8.40
2019-04-14T23:23:08.217Z,8.30
2019-04-14T23:25:37.980Z,8.20
2019-04-14T23:28:07.626Z,8.10
2019-04-14T23:30:37.271Z,8.00
2019-04-14T23:33:06.848Z,8.00
2019-04-14T23:35:36.465Z,8.10
2019-04-14T23:38:06.215Z,8.20
2019-04-14T23:40:36.211Z,8.20
2019-04-14T23:43:05.792Z,8.20
2019-04-14T23:45:35.409Z,8.20
2019-04-14T23:48:05.062Z,8.20
2019-04-14T23:50:34.648Z,8.20
2019-04-14T23:53:04.264Z,8.10
2019-04-14T23:55:34.119Z,8.20
2019-04-14T23:58:03.788Z,8.10
